Home > Products > Valid Products > TAF

000
FTUS44 KOHX 201100
TAFCSV
TAF
KCSV 201120Z 2012/2112 18006KT P6SM SCT040=



000
FTUS44 KOHX 201100
TAFCKV
TAF
KCKV 201120Z 2012/2112 19009KT P6SM SCT050=



000
FTUS44 KOHX 201100
TAFBNA
TAF
KBNA 201120Z 2012/2112 18008KT P6SM SCT050=



000
FTUS44 KOHX 200800 AAA
TAFCKV
TAF AMD
KCKV 200806Z 2008/2106 00000KT P6SM SCT060
      TEMPO 2008/2012 1SM BR
     FM201500 20008KT P6SM SCT050=



000
FTUS44 KOHX 200500
TAFBNA
TAF
KBNA 200520Z 2006/2106 15003KT P6SM SCT060
     FM201500 19007KT P6SM SCT050=



000
FTUS44 KOHX 200500
TAFCSV
TAF
KCSV 200520Z 2006/2106 15002KT P6SM FEW070
      TEMPO 2009/2013 4SM BR
     FM201500 18006KT P6SM SCT040=



000
FTUS44 KOHX 200500
TAFCKV
TAF
KCKV 200520Z 2006/2106 14002KT P6SM FEW060
     FM201500 20008KT P6SM SCT050=



000
FTUS44 KOHX 192300
TAFCKV
TAF
KCKV 192320Z 2000/2024 14002KT P6SM SKC
     FM201500 20008KT P6SM SCT050=



000
FTUS44 KOHX 192300
TAFBNA
TAF
KBNA 192320Z 2000/2024 15003KT P6SM SKC
     FM201500 18007KT P6SM SCT050=



000
FTUS44 KOHX 192300
TAFCSV
TAF
KCSV 192320Z 2000/2024 15002KT P6SM SKC
      TEMPO 2009/2013 VRB02KT 4SM BR
     FM201500 18006KT P6SM SCT040=



000
FTUS44 KOHX 191700
TAFCKV
TAF
KCKV 191720Z 1918/2018 09004KT P6SM SKC
     FM201500 19008KT P6SM SCT250=



000
FTUS44 KOHX 191700
TAFCSV
TAF
KCSV 191720Z 1918/2018 13005KT P6SM SKC
      TEMPO 2009/2013 VRB02KT 4SM BR
     FM201500 16006KT P6SM SKC=



000
FTUS44 KOHX 191700
TAFBNA
TAF
KBNA 191720Z 1918/2018 05004KT P6SM FEW050
     FM201500 17008KT P6SM SCT250=



000
FTUS44 KOHX 191100
TAFBNA
TAF
KBNA 191120Z 1912/2012 06005KT P6SM SCT045
     FM191800 12005KT P6SM SCT045=



000
FTUS44 KOHX 191100
TAFCSV
TAF
KCSV 191120Z 1912/2012 00000KT P6SM SCT040
      TEMPO 1912/1913 4SM BR
     FM191400 12004KT P6SM SCT040=



000
FTUS44 KOHX 191100
TAFCKV
TAF
KCKV 191120Z 1912/2012 06005KT P6SM SCT045
     FM191800 12005KT P6SM SCT045=



000
FTUS44 KOHX 191000 AAB
TAFCSV
TAF AMD
KCSV 191001Z 1910/2006 00000KT P6SM SCT045
      TEMPO 1910/1913 4SM BR
     FM191500 12004KT P6SM SCT030=



000
FTUS44 KOHX 191000 AAA
TAFCKV
TAF AMD
KCKV 191000Z 1910/2006 06003KT P6SM SCT045
      TEMPO 1911/1913 5SM BR
     FM191500 10004KT P6SM SCT040=



000
FTUS44 KOHX 191000 AAA
TAFBNA
TAF AMD
KBNA 191000Z 1910/2006 04004KT P6SM SCT045
     FM191500 10004KT P6SM SCT040=



000
FTUS44 KOHX 190600 AAA
TAFCSV
TAF AMD
KCSV 190658Z 1907/2006 00000KT 4SM BR SKC
     FM191500 12004KT P6SM SCT030=



000
FTUS44 KOHX 190500
TAFCKV
TAF
KCKV 190520Z 1906/2006 04004KT P6SM SKC
     FM191000 00000KT 4SM BR SKC
      TEMPO 1911/1913 2SM BR
     FM191500 10004KT P6SM SCT040=



000
FTUS44 KOHX 190500
TAFCSV
TAF
KCSV 190520Z 1906/2006 00000KT P6SM SKC
     FM191000 00000KT 4SM BR SKC
     FM191500 12004KT P6SM SCT030=



000
FTUS44 KOHX 190500
TAFBNA
TAF
KBNA 190520Z 1906/2006 04004KT P6SM SKC
     FM191500 10004KT P6SM SCT040=



000
FTUS44 KOHX 182300
TAFCSV
TAF
KCSV 182320Z 1900/1924 06004KT P6SM BKN250
     FM190300 00000KT P6SM SKC
     FM191000 00000KT 4SM BR SKC
     FM191500 12004KT P6SM SCT030=



000
FTUS44 KOHX 182300
TAFCKV
TAF
KCKV 182320Z 1900/1924 06005KT P6SM SCT050 BKN250
     FM190200 05004KT P6SM SKC
     FM191000 00000KT 4SM BR SKC
      TEMPO 1911/1913 2SM BR
     FM191500 10004KT P6SM SCT040=



000
FTUS44 KOHX 182300
TAFBNA
TAF
KBNA 182320Z 1900/1924 09005KT P6SM SCT150 BKN250
     FM190300 04004KT P6SM SKC
     FM191500 10004KT P6SM SCT040=



000
FTUS44 KOHX 181700
TAFBNA
TAF
KBNA 181720Z 1818/1918 04007KT P6SM SCT060 BKN250
     FM190100 03004KT P6SM SKC
     FM191500 10006KT P6SM SCT040=



000
FTUS44 KOHX 181700
TAFCKV
TAF
KCKV 181720Z 1818/1918 06005KT P6SM OVC250
     FM190100 05003KT P6SM SKC
     FM191100 00000KT 4SM BR SKC
     FM191400 09006KT P6SM SCT040=



000
FTUS44 KOHX 181700
TAFCSV
TAF
KCSV 181720Z 1818/1918 03004KT P6SM SCT060 SCT250
     FM190100 00000KT P6SM SKC
     FM191000 00000KT 4SM BR SKC
     FM191400 12004KT P6SM SCT030=



000
FTUS44 KOHX 181300 AAA
TAFCKV
TAF AMD
KCKV 181318Z 1813/1912 07006KT 4SM BR SCT060
     FM181400 06005KT P6SM OVC250
     FM190100 05003KT P6SM SKC
     FM191100 00000KT 4SM BR SKC=



000
FTUS44 KOHX 181100
TAFBNA
TAF
KBNA 181120Z 1812/1912 04004KT P6SM BKN060
     FM181600 04007KT P6SM SCT060 BKN250
     FM190100 03004KT P6SM SKC=



000
FTUS44 KOHX 181100
TAFCSV
TAF
KCSV 181120Z 1812/1912 00000KT P6SM SKC
     FM181300 03004KT P6SM SCT060 SCT250
     FM190100 00000KT P6SM SKC=



000
FTUS44 KOHX 181100
TAFCKV
TAF
KCKV 181120Z 1812/1912 07006KT 5SM BR BKN060
     FM181230 06005KT P6SM OVC250
     FM190100 05003KT P6SM SKC
     FM191100 00000KT 4SM BR SKC=



000
FTUS44 KOHX 180900 AAA
TAFCKV
TAF AMD
KCKV 180943Z 1810/1906 07005KT 6SM BR OVC060
     FM181200 07006KT P6SM SCT060 OVC250
     FM190100 05003KT P6SM SKC=



000
FTUS44 KOHX 180900 AAA
TAFBNA
TAF AMD
KBNA 180940Z 1810/1906 04004KT P6SM BKN090
     FM181600 04007KT P6SM SCT060 BKN250
     FM190100 03004KT P6SM SKC=



000
FTUS44 KOHX 180900 AAA
TAFCSV
TAF AMD
KCSV 180940Z 1810/1906 00000KT P6SM BKN080
     FM181100 00000KT 4SM BR BKN060 BKN200
     FM181300 03004KT P6SM SCT060 SCT200
     FM190100 00000KT P6SM SKC=



000
FTUS44 KOHX 180500
TAFCKV
TAF
KCKV 180520Z 1806/1906 00000KT P6SM BKN080
     FM180700 00000KT 4SM BR BKN050 BKN080
      TEMPO 1809/1813 2SM BR
     FM181500 04004KT P6SM SCT050 SCT250
     FM190100 05003KT P6SM SKC=



000
FTUS44 KOHX 180500
TAFBNA
TAF
KBNA 180520Z 1806/1906 00000KT P6SM BKN080
     FM181000 00000KT 4SM BR SCT250
     FM181400 04004KT P6SM SCT060 SCT250
     FM190100 03004KT P6SM SKC=



000
FTUS44 KOHX 180500
TAFCSV
TAF
KCSV 180520Z 1806/1906 00000KT P6SM BKN100 BKN200
     FM180800 00000KT 4SM BR BKN100 BKN200
     FM181000 00000KT 2SM BR BKN060 BKN200
     FM181400 03004KT P6SM SCT060 SCT200
     FM190100 00000KT P6SM SKC=



000
FTUS44 KOHX 172300 RRA
TAFBNA
TAF
KBNA 172340Z 1800/1824 03005KT P6SM BKN250
     FM180400 00000KT P6SM BKN080 BKN250
     FM181000 00000KT 4SM BR SCT250
     FM181400 04004KT P6SM SCT060 SCT250=



000
FTUS44 KOHX 172300 RRA
TAFCKV
TAF
KCKV 172340Z 1800/1824 34003KT P6SM BKN250
     FM180200 00000KT P6SM BKN100 BKN250
     FM180700 00000KT 4SM BR BKN050 BKN100
      TEMPO 1809/1813 2SM BR
     FM181500 04004KT P6SM SCT050 SCT250=



000
FTUS44 KOHX 172300 RRA
TAFCSV
TAF
KCSV 172340Z 1800/1824 29005KT P6SM BKN100 BKN200
     FM180500 00000KT 4SM BR BKN100 BKN200
     FM181000 00000KT 2SM BR BKN060 BKN200
     FM181400 03004KT P6SM SCT060 SCT200=



000
FTUS44 KOHX 171700
TAFBNA
TAF
KBNA 171732Z 1718/1818 VRB03KT P6SM FEW030 SCT120 OVC250
     FM180000 00000KT P6SM SCT080 BKN250
     FM180200 00000KT P6SM BKN080 BKN250
     FM181000 00000KT 4SM BR BKN080 BKN250
     FM181400 04004KT P6SM SCT080 BKN250=



000
FTUS44 KOHX 171700
TAFCSV
TAF
KCSV 171732Z 1718/1818 VRB03KT P6SM BKN250
     FM172000 VRB03KT P6SM SCT100 BKN250
     FM180300 00000KT P6SM BKN100 BKN250
     FM181000 00000KT 4SM BR BKN080 BKN250
     FM181400 VRB03KT P6SM SCT080 BKN250=



000
FTUS44 KOHX 171700
TAFCKV
TAF
KCKV 171732Z 1718/1818 VRB03KT P6SM FEW030 SCT080 OVC250
     FM172200 00000KT P6SM BKN080 BKN250
     FM181000 00000KT 4SM BR BKN080 BKN250
      TEMPO 1810/1813 2SM BR
     FM181400 04004KT P6SM SCT080 BKN250=



000
FTUS44 KOHX 171600 AAE
TAFCKV
TAF AMD
KCKV 171631Z 1717/1812 00000KT 6SM HZ SCT006
     FM171800 VRB03KT P6SM FEW020 BKN250
     FM180100 VRB03KT P6SM BKN050=



000
FTUS44 KOHX 171500 AAD
TAFCKV
TAF AMD
KCKV 171540Z 1716/1812 12003KT 2SM BR OVC002
     FM171600 09003KT 5SM HZ BKN007 BKN250
     FM171700 34004KT P6SM FEW011 SCT060 BKN150
     FM180100 VRB03KT P6SM BKN050=



000
FTUS44 KOHX 171400 AAC
TAFCKV
TAF AMD
KCKV 171453Z 1715/1812 09003KT 1/4SM FG VV002
     FM171600 09003KT 1 1/2SM BR BKN007 BKN250
     FM171630 09003KT 5SM HZ BKN010 BKN250
     FM171700 34004KT P6SM FEW011 SCT060 BKN150
     FM180100 VRB03KT P6SM BKN050=



    US Dept of Commerce
    National Oceanic and Atmospheric Administration
    National Weather Service
    1325 East West Highway
    Silver Spring, MD 20910
    Page Author: NWS Internet Services Team
Disclaimer
Information Quality
Credits
Glossary
Privacy Policy
Freedom of Information Act (FOIA)
About Us
Career Opportunities